This is the latest recevied weather packets stored in our database for station/object HS5NMF. If no packets are shown the sender has not sent any weather packets the latest 10 day(s).
| Time | Temp. | Humidity | Pressure | Rain* | Wind** | Luminosity | Snow |
|---|---|---|---|---|---|---|---|
| 1777742771 | 29.44° C | 79% | 977 hPa | - | - | 0 W/m² | - |
| 1777742449 | 29.44° C | 80% | 977 hPa | - | - | 0 W/m² | - |
| 1777742129 | 29.44° C | 80% | 977 hPa | - | - | 0 W/m² | - |
| 1777741804 | 29.44° C | 82% | 977 hPa | - | - | 0 W/m² | - |
| 1777741482 | 28.89° C | 82% | 977 hPa | - | - | 0 W/m² | - |
| 1777741156 | 29.44° C | 81% | 977 hPa | - | - | 0 W/m² | - |
| 1777740834 | 29.44° C | 81% | 977 hPa | - | - | 0 W/m² | - |
| 1777740512 | 29.44° C | 81% | 977 hPa | - | - | 0 W/m² | - |
| 1777740191 | 30° C | 80% | 977 hPa | - | - | 0 W/m² | - |
| 1777739867 | 30° C | 80% | 977 hPa | - | - | 0 W/m² | - |
| 1777739545 | 30° C | 81% | 977 hPa | - | - | 0 W/m² | - |
| 1777739221 | 30° C | 80% | 977 hPa | - | - | 0 W/m² | - |
| 1777738899 | 30° C | 80% | 977 hPa | - | - | 0 W/m² | - |
| 1777738577 | 30° C | 80% | 977 hPa | - | - | 0 W/m² | - |
| 1777738254 | 30° C | 83% | 977 hPa | - | - | 0 W/m² | - |
| 1777737932 | 29.44° C | 85% | 977 hPa | - | - | 0 W/m² | - |
| 1777737608 | 30° C | 83% | 978 hPa | - | - | 0 W/m² | - |
| 1777737286 | 30° C | 80% | 978 hPa | - | - | 0 W/m² | - |
| 1777736963 | 30° C | 81% | 978 hPa | - | - | 0 W/m² | - |
| 1777736640 | 30° C | 80% | 978 hPa | - | - | 0 W/m² | - |
| 1777736317 | 30° C | 81% | 978 hPa | - | - | 0 W/m² | - |
| 1777735995 | 28.89° C | 86% | 978 hPa | - | - | 0 W/m² | - |
| 1777735672 | 28.89° C | 86% | 978 hPa | - | - | 0 W/m² | - |
| 1777735350 | 28.89° C | 87% | 978 hPa | - | - | 0 W/m² | - |
| 1777735027 | 29.44° C | 84% | 978 hPa | - | - | 0 W/m² | - |
* Rain since midnight (hover to see other rain measurements)
** Current wind speed in m/s (hover to see current wind gust speed)